createdAt,value
2022-12-09T00:00:34.566Z,2.17
2022-12-09T00:02:36.367Z,3.00
2022-12-09T00:04:38.388Z,2.35
2022-12-09T00:06:40.191Z,2.58
2022-12-09T00:08:42.658Z,2.60
2022-12-09T00:10:45.424Z,2.30
2022-12-09T00:12:47.119Z,2.08
2022-12-09T00:14:48.793Z,2.80
2022-12-09T00:16:50.452Z,2.50
2022-12-09T00:18:53.136Z,2.53
2022-12-09T00:20:54.797Z,2.30
2022-12-09T00:22:57.618Z,2.10
2022-12-09T00:24:59.431Z,2.63
2022-12-09T00:27:01.342Z,2.20
2022-12-09T00:29:04.213Z,2.40
2022-12-09T00:31:07.379Z,2.20
2022-12-09T00:33:09.072Z,2.30
2022-12-09T00:35:10.736Z,2.70
2022-12-09T00:37:12.324Z,2.28
2022-12-09T00:39:14.315Z,2.35
2022-12-09T00:41:17.553Z,2.42
2022-12-09T00:43:19.233Z,2.30
2022-12-09T00:45:20.910Z,2.15
2022-12-09T00:47:22.761Z,2.08
2022-12-09T00:49:24.803Z,2.22
2022-12-09T00:51:26.629Z,2.58
2022-12-09T00:53:28.565Z,2.17
2022-12-09T00:55:30.275Z,2.47
2022-12-09T00:57:32.270Z,2.10
2022-12-09T00:59:34.037Z,2.35
2022-12-09T01:01:35.944Z,2.35
2022-12-09T01:03:38.770Z,2.15
2022-12-09T01:05:41.257Z,2.35
2022-12-09T01:07:42.921Z,2.42
2022-12-09T01:09:44.598Z,2.53
2022-12-09T01:11:46.479Z,2.85
2022-12-09T01:13:48.927Z,2.10
2022-12-09T01:15:50.635Z,2.28
2022-12-09T01:17:52.351Z,2.25
2022-12-09T01:19:54.117Z,1.95
2022-12-09T01:21:55.755Z,2.22
2022-12-09T01:23:57.575Z,2.13
2022-12-09T01:25:59.246Z,2.45
2022-12-09T01:28:01.183Z,2.13
2022-12-09T01:30:03.300Z,2.67
2022-12-09T01:32:05.620Z,2.75
2022-12-09T01:34:07.549Z,2.40
2022-12-09T01:36:15.066Z,2.00
2022-12-09T01:38:16.818Z,2.10
2022-12-09T01:40:19.203Z,2.00
2022-12-09T01:42:23.540Z,2.53
2022-12-09T01:44:26.716Z,1.88
2022-12-09T01:46:28.443Z,1.88
2022-12-09T01:48:33.758Z,2.03
2022-12-09T01:50:37.852Z,2.35
2022-12-09T01:52:39.563Z,2.50
2022-12-09T01:54:43.818Z,1.83
2022-12-09T01:56:45.623Z,1.83
2022-12-09T01:58:48.424Z,2.42
2022-12-09T02:00:50.361Z,2.42
2022-12-09T02:02:54.681Z,1.95
2022-12-09T02:04:57.207Z,2.20
2022-12-09T02:07:02.648Z,2.10
2022-12-09T02:09:05.079Z,2.30
2022-12-09T02:11:18.398Z,1.90
2022-12-09T02:13:39.857Z,2.10
2022-12-09T02:17:57.808Z,2.28
2022-12-09T02:20:05.950Z,2.10
2022-12-09T02:22:10.847Z,1.98
2022-12-09T02:24:38.142Z,2.08
2022-12-09T02:26:46.835Z,2.00
2022-12-09T02:29:07.354Z,4.03
2022-12-09T02:31:37.389Z,1.90
2022-12-09T02:34:03.781Z,2.03
2022-12-09T02:36:15.193Z,2.13
2022-12-09T02:40:45.938Z,1.83
2022-12-09T02:42:49.466Z,2.20
2022-12-09T02:44:52.652Z,2.33
2022-12-09T02:46:56.097Z,2.00
2022-12-09T02:48:59.501Z,2.22
2022-12-09T02:51:06.233Z,2.63
2022-12-09T02:53:11.610Z,2.50
2022-12-09T02:55:16.668Z,2.05
2022-12-09T02:57:23.589Z,2.13
2022-12-09T02:59:25.301Z,2.45
2022-12-09T03:01:41.408Z,2.25
2022-12-09T03:03:43.204Z,2.40
2022-12-09T03:06:09.484Z,2.17
2022-12-09T03:08:52.549Z,2.00
2022-12-09T03:11:06.326Z,2.10
2022-12-09T03:13:25.580Z,2.83
2022-12-09T03:15:34.006Z,2.00
2022-12-09T03:17:39.166Z,2.45
2022-12-09T03:19:43.688Z,2.33
2022-12-09T03:21:51.329Z,1.95
2022-12-09T03:23:55.685Z,2.40
2022-12-09T03:26:00.510Z,2.40
2022-12-09T03:28:13.572Z,2.63
2022-12-09T03:30:16.400Z,2.30
2022-12-09T03:32:21.634Z,2.22
2022-12-09T03:34:30.380Z,2.65
2022-12-09T03:36:39.752Z,1.98
2022-12-09T03:38:43.898Z,1.98
2022-12-09T03:40:49.530Z,1.67
2022-12-09T03:43:08.363Z,1.98
2022-12-09T03:45:11.611Z,2.35
2022-12-09T03:47:13.684Z,2.20
2022-12-09T03:49:16.043Z,2.40
2022-12-09T03:51:34.033Z,2.10
2022-12-09T03:53:44.276Z,2.20
2022-12-09T03:56:01.320Z,2.13
2022-12-09T03:58:07.190Z,2.17
2022-12-09T04:00:10.066Z,2.20
2022-12-09T04:02:12.597Z,2.03
2022-12-09T04:04:15.364Z,2.13
2022-12-09T04:06:17.214Z,2.00
2022-12-09T04:08:18.873Z,2.20
2022-12-09T04:10:21.164Z,2.10
2022-12-09T04:12:23.069Z,2.28
2022-12-09T04:14:24.881Z,1.75
2022-12-09T04:16:26.871Z,2.00
2022-12-09T04:18:28.898Z,1.92
2022-12-09T04:20:30.872Z,2.05
2022-12-09T04:22:32.863Z,2.30
2022-12-09T04:24:34.815Z,2.45
2022-12-09T04:26:36.845Z,2.08
2022-12-09T04:28:38.860Z,2.20
2022-12-09T04:30:46.280Z,1.88
2022-12-09T04:32:48.533Z,1.90
2022-12-09T04:34:50.701Z,2.60
2022-12-09T04:36:52.396Z,2.20
2022-12-09T04:38:54.814Z,2.22
2022-12-09T04:40:56.799Z,2.20
2022-12-09T04:42:58.582Z,2.05
2022-12-09T04:45:00.324Z,2.15
2022-12-09T04:47:02.126Z,2.22
2022-12-09T04:49:03.990Z,2.00
2022-12-09T04:51:14.901Z,1.85
2022-12-09T04:53:16.890Z,2.40
2022-12-09T04:55:18.675Z,1.83
2022-12-09T04:57:20.798Z,2.08
2022-12-09T04:59:22.534Z,2.00
2022-12-09T05:01:30.120Z,2.17
2022-12-09T05:03:33.174Z,1.90
2022-12-09T05:05:39.381Z,1.77
2022-12-09T05:07:41.437Z,2.00
2022-12-09T05:09:43.324Z,1.67
2022-12-09T05:11:45.791Z,2.05
2022-12-09T05:13:47.918Z,2.20
2022-12-09T05:15:50.028Z,1.80
2022-12-09T05:17:51.964Z,2.03
2022-12-09T05:19:53.769Z,2.05
2022-12-09T05:21:55.778Z,2.00
2022-12-09T05:23:57.691Z,1.70
2022-12-09T05:26:02.575Z,1.83
2022-12-09T05:28:04.555Z,1.58
2022-12-09T05:30:07.622Z,2.10
2022-12-09T05:32:09.801Z,1.95
2022-12-09T05:34:11.775Z,1.70
2022-12-09T05:36:15.839Z,1.92
2022-12-09T05:38:17.473Z,2.00
2022-12-09T05:40:19.454Z,1.92
2022-12-09T05:42:21.114Z,1.90
2022-12-09T05:44:23.203Z,1.80
2022-12-09T05:46:25.072Z,1.80
2022-12-09T05:48:27.204Z,1.60
2022-12-09T05:50:29.517Z,1.70
2022-12-09T05:52:31.267Z,1.50
2022-12-09T05:54:33.169Z,1.90
2022-12-09T05:56:35.450Z,1.77
2022-12-09T05:58:37.445Z,1.88
2022-12-09T06:00:39.233Z,1.95
2022-12-09T06:02:41.103Z,1.90
2022-12-09T06:04:43.702Z,1.92
2022-12-09T06:06:45.945Z,2.00
2022-12-09T06:08:48.594Z,2.25
2022-12-09T06:10:51.073Z,1.80
2022-12-09T06:12:56.103Z,1.80
2022-12-09T06:14:57.869Z,1.88
2022-12-09T06:16:59.627Z,2.20
2022-12-09T06:19:02.114Z,2.08
2022-12-09T06:21:09.272Z,1.70
2022-12-09T06:23:11.365Z,1.80
2022-12-09T06:25:13.438Z,2.00
2022-12-09T06:27:16.173Z,2.20
2022-12-09T06:29:18.020Z,1.98
2022-12-09T06:31:20.533Z,2.10
2022-12-09T06:33:53.121Z,2.15
2022-12-09T06:35:44.716Z,1.90
2022-12-09T06:37:46.517Z,2.13
2022-12-09T06:39:48.551Z,1.77
2022-12-09T06:41:50.363Z,1.83
2022-12-09T06:43:52.095Z,2.00
2022-12-09T06:45:54.177Z,2.13
2022-12-09T06:47:55.997Z,2.30
2022-12-09T06:50:02.708Z,2.15
2022-12-09T06:52:08.036Z,2.03
2022-12-09T06:54:09.765Z,2.85
2022-12-09T06:56:13.560Z,1.92
2022-12-09T06:58:15.632Z,1.90
2022-12-09T07:00:17.763Z,2.13
2022-12-09T07:02:19.786Z,2.22
2022-12-09T07:04:23.122Z,1.90
2022-12-09T07:06:36.719Z,2.10
2022-12-09T07:08:38.985Z,2.13
2022-12-09T07:10:41.422Z,2.40
2022-12-09T07:12:43.609Z,2.28
2022-12-09T07:14:45.616Z,5.57
2022-12-09T07:16:48.143Z,2.55
2022-12-09T07:18:50.406Z,2.10
2022-12-09T07:20:52.444Z,2.40
2022-12-09T07:22:54.348Z,1.98
2022-12-09T07:24:56.013Z,2.00
2022-12-09T07:27:00.327Z,2.25
2022-12-09T07:29:06.727Z,2.60
2022-12-09T07:31:19.275Z,2.10
2022-12-09T07:33:21.214Z,2.08
2022-12-09T07:35:23.349Z,2.00
2022-12-09T07:37:25.180Z,2.40
2022-12-09T07:39:27.015Z,2.22
2022-12-09T07:41:29.669Z,2.78
2022-12-09T07:43:34.236Z,1.98
2022-12-09T07:45:37.231Z,2.33
2022-12-09T07:47:39.288Z,2.42
2022-12-09T07:49:41.473Z,2.00
2022-12-09T07:51:44.057Z,2.30
2022-12-09T07:53:47.032Z,2.20
2022-12-09T07:55:49.018Z,2.13
2022-12-09T07:57:50.950Z,2.35
2022-12-09T07:59:53.458Z,3.80
2022-12-09T08:01:57.789Z,2.35
2022-12-09T08:04:02.376Z,2.30
2022-12-09T08:06:04.958Z,2.67
2022-12-09T08:08:07.486Z,2.13
2022-12-09T08:10:10.057Z,2.30
2022-12-09T08:12:12.703Z,2.28
2022-12-09T08:14:15.010Z,2.42
2022-12-09T08:16:19.783Z,2.42
2022-12-09T08:18:21.564Z,2.67
2022-12-09T08:20:28.880Z,2.40
2022-12-09T08:22:31.326Z,2.25
2022-12-09T08:24:33.374Z,2.30
2022-12-09T08:26:37.560Z,2.03
2022-12-09T08:28:40.292Z,2.50
2022-12-09T08:30:42.479Z,2.78
2022-12-09T08:32:45.047Z,2.58
2022-12-09T08:34:47.391Z,2.38
2022-12-09T08:36:49.530Z,2.38
2022-12-09T08:38:51.661Z,2.40
2022-12-09T08:40:53.543Z,2.28
2022-12-09T08:42:55.558Z,2.47
2022-12-09T08:45:01.983Z,2.45
2022-12-09T08:47:05.149Z,2.75
2022-12-09T08:49:08.343Z,2.20
2022-12-09T08:51:11.518Z,2.70
2022-12-09T08:53:13.265Z,2.28
2022-12-09T08:55:15.216Z,2.55
2022-12-09T08:57:22.213Z,2.22
2022-12-09T08:59:24.627Z,2.60
2022-12-09T09:01:37.574Z,3.15
2022-12-09T09:03:40.082Z,2.67
2022-12-09T09:05:42.333Z,3.28
2022-12-09T09:07:44.712Z,2.42
2022-12-09T09:09:47.034Z,2.70
2022-12-09T09:11:49.042Z,2.50
2022-12-09T09:13:51.868Z,2.88
2022-12-09T09:15:53.566Z,2.60
2022-12-09T09:17:55.927Z,3.05
2022-12-09T09:19:57.829Z,2.38
2022-12-09T09:22:00.611Z,3.65
2022-12-09T09:24:03.179Z,3.53
2022-12-09T09:26:05.176Z,2.53
2022-12-09T09:28:07.536Z,2.92
2022-12-09T09:30:10.555Z,2.70
2022-12-09T09:32:12.735Z,2.55
2022-12-09T09:34:17.311Z,2.30
2022-12-09T09:36:23.785Z,2.67
2022-12-09T09:38:27.033Z,3.15
2022-12-09T09:40:29.728Z,3.00
2022-12-09T09:42:37.164Z,2.50
2022-12-09T09:44:43.295Z,3.00
2022-12-09T09:46:47.931Z,2.40
2022-12-09T09:48:51.951Z,4.85
2022-12-09T09:51:03.729Z,3.05
2022-12-09T09:53:26.700Z,2.47
2022-12-09T09:55:38.857Z,2.47
2022-12-09T09:57:54.289Z,3.58
2022-12-09T10:00:08.523Z,2.42
2022-12-09T10:02:11.600Z,2.50
2022-12-09T10:04:37.509Z,2.65
2022-12-09T10:06:49.998Z,2.80
2022-12-09T10:09:03.946Z,3.88
2022-12-09T10:11:23.469Z,2.75
2022-12-09T10:13:45.407Z,2.60
2022-12-09T10:16:23.004Z,2.72
2022-12-09T10:18:39.853Z,3.40
2022-12-09T10:20:42.922Z,3.25
2022-12-09T10:22:59.024Z,2.55
2022-12-09T10:25:14.755Z,2.83
2022-12-09T10:27:24.432Z,2.35
2022-12-09T10:29:48.441Z,2.65
2022-12-09T10:31:50.652Z,3.00
2022-12-09T10:33:52.547Z,2.72
2022-12-09T10:35:56.244Z,4.05
2022-12-09T10:38:16.244Z,2.60
2022-12-09T10:40:22.983Z,2.50
2022-12-09T10:42:44.801Z,3.47
2022-12-09T10:44:49.024Z,3.53
2022-12-09T10:47:04.209Z,2.65
2022-12-09T10:49:15.091Z,3.53
2022-12-09T10:51:27.401Z,3.00
2022-12-09T10:53:31.168Z,3.38
2022-12-09T10:55:42.731Z,3.47
2022-12-09T10:57:44.624Z,2.80
2022-12-09T11:00:06.064Z,4.80
2022-12-09T11:02:08.832Z,3.60
2022-12-09T11:04:14.244Z,3.67
2022-12-09T11:06:31.255Z,3.35
2022-12-09T11:08:34.353Z,2.92
2022-12-09T11:10:37.675Z,2.70
2022-12-09T11:12:41.359Z,3.13
2022-12-09T11:14:53.329Z,2.72
2022-12-09T11:17:00.516Z,4.10
2022-12-09T11:19:02.485Z,4.93
2022-12-09T11:21:27.439Z,3.25
2022-12-09T11:23:30.063Z,4.60
2022-12-09T11:25:34.655Z,2.85
2022-12-09T11:27:37.456Z,2.70
2022-12-09T11:29:39.178Z,4.43
2022-12-09T11:31:42.045Z,3.38
2022-12-09T11:33:53.150Z,3.10
2022-12-09T11:36:17.178Z,2.67
2022-12-09T11:38:38.797Z,4.25
2022-12-09T11:40:40.495Z,3.58
2022-12-09T11:42:42.400Z,6.53
2022-12-09T11:44:59.153Z,3.53
2022-12-09T11:47:20.848Z,3.10
2022-12-09T11:49:22.646Z,3.30
2022-12-09T11:51:32.883Z,3.75
2022-12-09T11:53:40.632Z,4.40
2022-12-09T11:55:46.490Z,3.42
2022-12-09T11:57:52.878Z,4.03
2022-12-09T12:00:01.218Z,3.47
2022-12-09T12:02:14.925Z,3.50
2022-12-09T12:04:22.370Z,4.40
2022-12-09T12:06:28.695Z,3.30
2022-12-09T12:08:46.951Z,3.03
2022-12-09T12:11:27.055Z,3.90
2022-12-09T12:13:37.718Z,3.60
2022-12-09T12:16:00.962Z,4.20
2022-12-09T12:18:08.192Z,3.20
2022-12-09T12:20:13.544Z,3.88
2022-12-09T12:22:30.264Z,3.72
2022-12-09T12:24:37.813Z,3.70
2022-12-09T12:26:52.882Z,3.40
2022-12-09T12:29:24.636Z,8.32
2022-12-09T12:31:38.974Z,7.47
2022-12-09T12:34:24.683Z,3.13
2022-12-09T12:36:51.105Z,5.85
2022-12-09T12:39:02.867Z,3.53
2022-12-09T12:41:21.774Z,3.65
2022-12-09T12:43:55.810Z,3.55
2022-12-09T12:46:22.602Z,4.35
2022-12-09T12:48:41.401Z,4.45
2022-12-09T12:51:10.039Z,3.25
2022-12-09T12:53:32.151Z,3.53
2022-12-09T12:55:36.592Z,3.63
2022-12-09T12:57:47.150Z,3.72
2022-12-09T12:59:51.773Z,3.83
2022-12-09T13:02:01.664Z,3.38
2022-12-09T13:04:21.918Z,4.72
2022-12-09T13:06:37.895Z,3.53
2022-12-09T13:08:48.414Z,3.65
2022-12-09T13:10:57.122Z,4.32
2022-12-09T13:13:01.720Z,3.63
2022-12-09T13:15:03.636Z,3.58
2022-12-09T13:17:12.888Z,3.80
2022-12-09T13:19:27.022Z,3.03
2022-12-09T13:21:28.707Z,4.20
2022-12-09T13:24:07.058Z,3.50
2022-12-09T13:26:14.498Z,3.13
2022-12-09T13:28:39.193Z,3.60
2022-12-09T13:30:54.384Z,4.72
2022-12-09T13:33:12.780Z,4.55
2022-12-09T13:35:22.871Z,4.05
2022-12-09T13:37:54.749Z,4.32
2022-12-09T13:39:58.259Z,4.03
2022-12-09T13:42:18.455Z,4.68
2022-12-09T13:44:21.229Z,3.50
2022-12-09T13:46:25.466Z,3.17
2022-12-09T13:48:30.132Z,4.28
2022-12-09T13:50:42.078Z,4.30
2022-12-09T13:52:52.124Z,3.60
2022-12-09T13:54:53.871Z,3.72
2022-12-09T13:57:21.445Z,3.50
2022-12-09T13:59:32.379Z,4.35
2022-12-09T14:01:50.348Z,5.88
2022-12-09T14:04:10.426Z,3.50
2022-12-09T14:06:47.353Z,4.88
2022-12-09T14:08:52.796Z,5.30
2022-12-09T14:10:54.531Z,4.15
2022-12-09T14:12:56.095Z,3.95
2022-12-09T14:15:05.092Z,4.07
2022-12-09T14:17:25.241Z,4.43
2022-12-09T14:19:31.413Z,4.38
2022-12-09T14:21:33.473Z,4.68
2022-12-09T14:23:35.068Z,7.35
2022-12-09T14:25:36.678Z,3.30
2022-12-09T14:27:38.398Z,3.60
2022-12-09T14:29:47.109Z,4.30
2022-12-09T14:31:57.977Z,3.50
2022-12-09T14:33:59.999Z,4.38
2022-12-09T14:36:10.994Z,4.30
2022-12-09T14:38:34.295Z,4.25
2022-12-09T14:40:47.110Z,3.42
2022-12-09T14:43:39.494Z,3.88
2022-12-09T14:45:53.076Z,4.88
2022-12-09T14:47:56.120Z,3.40
2022-12-09T14:50:08.708Z,3.30
2022-12-09T14:52:30.968Z,3.33
2022-12-09T14:54:38.238Z,3.60
2022-12-09T14:56:46.053Z,3.42
2022-12-09T14:58:56.176Z,4.95
2022-12-09T15:01:04.630Z,3.92
2022-12-09T15:03:44.785Z,4.25
2022-12-09T15:05:57.746Z,3.50
2022-12-09T15:07:59.515Z,3.72
2022-12-09T15:10:32.086Z,3.60
2022-12-09T15:12:42.634Z,3.65
2022-12-09T15:14:45.027Z,4.10
2022-12-09T15:16:50.499Z,4.82
2022-12-09T15:18:54.030Z,3.92
2022-12-09T15:20:58.041Z,6.65
2022-12-09T15:23:20.785Z,3.30
2022-12-09T15:25:23.875Z,3.55
2022-12-09T15:27:26.311Z,5.20
2022-12-09T15:29:31.361Z,3.90
2022-12-09T15:31:34.424Z,4.10
2022-12-09T15:33:42.653Z,4.72
2022-12-09T15:35:59.327Z,3.50
2022-12-09T15:38:06.526Z,3.60
2022-12-09T15:40:12.728Z,3.67
2022-12-09T15:42:21.905Z,4.03
2022-12-09T15:44:26.298Z,3.38
2022-12-09T15:46:30.157Z,3.40
2022-12-09T15:48:38.721Z,3.58
2022-12-09T15:50:49.545Z,3.83
2022-12-09T15:52:57.123Z,4.07
2022-12-09T15:55:00.791Z,3.20
2022-12-09T15:57:05.479Z,4.95
2022-12-09T15:59:17.130Z,5.40
2022-12-09T16:01:25.695Z,3.47
2022-12-09T16:03:33.085Z,3.85
2022-12-09T16:05:41.621Z,4.18
2022-12-09T16:08:00.161Z,3.97
2022-12-09T16:10:11.090Z,3.55
2022-12-09T16:12:27.121Z,3.72
2022-12-09T16:14:43.913Z,4.43
2022-12-09T16:16:49.868Z,6.13
2022-12-09T16:18:51.587Z,10.50
2022-12-09T16:21:00.194Z,5.40
2022-12-09T16:23:03.928Z,5.03
2022-12-09T16:25:27.105Z,4.18
2022-12-09T16:27:32.055Z,6.25
2022-12-09T16:29:36.201Z,4.70
2022-12-09T16:31:38.007Z,5.03
2022-12-09T16:33:39.807Z,5.25
2022-12-09T16:35:42.873Z,4.00
2022-12-09T16:37:56.569Z,6.55
2022-12-09T16:39:59.560Z,4.50
2022-12-09T16:42:03.069Z,5.50
2022-12-09T16:44:20.797Z,4.65
2022-12-09T16:46:28.446Z,4.75
2022-12-09T16:48:30.687Z,4.50
2022-12-09T16:50:57.738Z,4.38
2022-12-09T16:53:00.478Z,4.63
2022-12-09T16:55:02.546Z,4.28
2022-12-09T16:57:04.488Z,4.00
2022-12-09T16:59:06.150Z,5.22
2022-12-09T17:01:14.370Z,5.68
2022-12-09T17:03:33.424Z,5.20
2022-12-09T17:05:35.144Z,6.40
2022-12-09T17:07:36.862Z,4.38
2022-12-09T17:09:38.529Z,5.90
2022-12-09T17:11:45.393Z,5.00
2022-12-09T17:13:50.354Z,4.50
2022-12-09T17:15:52.998Z,4.75
2022-12-09T17:17:54.705Z,5.78
2022-12-09T17:19:56.402Z,4.78
2022-12-09T17:21:58.103Z,5.00
2022-12-09T17:23:59.715Z,5.22
2022-12-09T17:26:05.132Z,6.70
2022-12-09T17:28:07.299Z,8.88
2022-12-09T17:30:09.786Z,7.60
2022-12-09T17:32:11.634Z,5.25
2022-12-09T17:34:13.353Z,4.50
2022-12-09T17:36:16.137Z,4.45
2022-12-09T17:38:17.846Z,4.78
2022-12-09T17:40:19.631Z,5.10
2022-12-09T17:42:21.330Z,5.18
2022-12-09T17:44:23.097Z,5.03
2022-12-09T17:46:25.027Z,5.57
2022-12-09T17:48:27.801Z,7.82
2022-12-09T17:50:29.536Z,4.32
2022-12-09T17:52:31.190Z,4.68
2022-12-09T17:54:33.005Z,5.57
2022-12-09T17:56:34.647Z,5.38
2022-12-09T17:58:36.944Z,6.70
2022-12-09T18:00:40.213Z,6.25
2022-12-09T18:02:42.009Z,5.20
2022-12-09T18:04:43.670Z,5.72
2022-12-09T18:06:46.294Z,5.13
2022-12-09T18:08:47.949Z,5.22
2022-12-09T18:10:49.599Z,7.32
2022-12-09T18:12:51.194Z,5.32
2022-12-09T18:14:52.825Z,5.07
2022-12-09T18:16:54.493Z,5.35
2022-12-09T18:18:56.232Z,5.32
2022-12-09T18:21:01.498Z,5.25
2022-12-09T18:23:03.158Z,6.25
2022-12-09T18:25:05.779Z,4.82
2022-12-09T18:27:07.381Z,4.65
2022-12-09T18:29:10.294Z,5.28
2022-12-09T18:31:19.041Z,5.30
2022-12-09T18:33:21.859Z,4.80
2022-12-09T18:35:23.453Z,4.97
2022-12-09T18:37:26.517Z,5.88
2022-12-09T18:39:28.441Z,4.75
2022-12-09T18:41:31.773Z,5.15
2022-12-09T18:43:41.552Z,4.95
2022-12-09T18:45:43.231Z,6.55
2022-12-09T18:47:46.295Z,5.75
2022-12-09T18:49:47.991Z,5.95
2022-12-09T18:51:51.195Z,5.65
2022-12-09T18:53:52.918Z,4.93
2022-12-09T18:55:54.604Z,5.97
2022-12-09T18:57:56.230Z,5.40
2022-12-09T18:59:57.901Z,5.85
2022-12-09T19:01:59.614Z,5.93
2022-12-09T19:04:03.515Z,5.72
2022-12-09T19:06:05.214Z,5.10
2022-12-09T19:08:07.808Z,5.30
2022-12-09T19:10:09.830Z,7.03
2022-12-09T19:12:45.246Z,5.30
2022-12-09T19:14:35.142Z,5.43
2022-12-09T19:16:37.514Z,5.93
2022-12-09T19:18:39.151Z,5.70
2022-12-09T19:20:40.845Z,4.95
2022-12-09T19:22:42.520Z,5.60
2022-12-09T19:24:44.236Z,5.32
2022-12-09T19:26:46.350Z,5.60
2022-12-09T19:28:56.929Z,4.93
2022-12-09T19:30:58.563Z,5.50
2022-12-09T19:33:00.212Z,5.78
2022-12-09T19:35:02.108Z,5.03
2022-12-09T19:37:03.743Z,5.78
2022-12-09T19:39:08.033Z,4.75
2022-12-09T19:41:10.252Z,5.70
2022-12-09T19:43:11.837Z,5.72
2022-12-09T19:45:14.414Z,5.20
2022-12-09T19:47:17.047Z,5.70
2022-12-09T19:49:20.031Z,5.40
2022-12-09T19:51:22.454Z,5.47
2022-12-09T19:53:24.097Z,6.10
2022-12-09T19:55:25.734Z,6.15
2022-12-09T19:57:27.475Z,5.38
2022-12-09T19:59:29.255Z,5.38
2022-12-09T20:01:34.314Z,4.65
2022-12-09T20:03:40.664Z,5.63
2022-12-09T20:05:56.011Z,5.80
2022-12-09T20:07:57.852Z,6.65
2022-12-09T20:09:59.482Z,6.03
2022-12-09T20:12:01.097Z,5.28
2022-12-09T20:14:06.072Z,5.10
2022-12-09T20:16:10.009Z,5.13
2022-12-09T20:18:14.109Z,5.93
2022-12-09T20:20:15.778Z,5.30
2022-12-09T20:22:17.415Z,6.05
2022-12-09T20:24:19.061Z,5.70
2022-12-09T20:26:26.361Z,5.20
2022-12-09T20:28:30.272Z,5.35
2022-12-09T20:30:32.234Z,5.50
2022-12-09T20:32:33.819Z,5.53
2022-12-09T20:34:35.930Z,5.55
2022-12-09T20:36:40.448Z,5.82
2022-12-09T20:38:42.997Z,5.30
2022-12-09T20:40:44.651Z,5.60
2022-12-09T20:42:46.309Z,5.20
2022-12-09T20:44:47.949Z,5.50
2022-12-09T20:46:51.902Z,5.15
2022-12-09T20:48:54.676Z,5.45
2022-12-09T20:50:56.508Z,5.00
2022-12-09T20:52:58.129Z,4.82
2022-12-09T20:54:59.763Z,6.63
2022-12-09T20:57:01.471Z,5.05
2022-12-09T20:59:04.669Z,5.28
2022-12-09T21:01:21.752Z,5.70
2022-12-09T21:03:23.556Z,4.82
2022-12-09T21:05:25.218Z,5.32
2022-12-09T21:07:26.840Z,5.13
2022-12-09T21:09:29.299Z,5.05
2022-12-09T21:11:32.312Z,5.40
2022-12-09T21:13:43.038Z,5.55
2022-12-09T21:15:44.646Z,5.45
2022-12-09T21:17:48.998Z,5.60
2022-12-09T21:19:50.625Z,5.45
2022-12-09T21:21:52.851Z,6.68
2022-12-09T21:23:54.637Z,5.65
2022-12-09T21:25:56.357Z,5.50
2022-12-09T21:27:58.359Z,5.57
2022-12-09T21:29:59.944Z,5.75
2022-12-09T21:32:02.065Z,5.60
2022-12-09T21:34:05.886Z,5.55
2022-12-09T21:36:10.315Z,5.47
2022-12-09T21:38:11.947Z,5.70
2022-12-09T21:40:13.651Z,6.82
2022-12-09T21:42:15.345Z,5.50
2022-12-09T21:44:18.572Z,5.13
2022-12-09T21:46:23.066Z,5.25
2022-12-09T21:48:24.690Z,5.55
2022-12-09T21:50:26.374Z,7.75
2022-12-09T21:52:28.045Z,4.88
2022-12-09T21:54:29.786Z,5.25
2022-12-09T21:56:34.967Z,5.40
2022-12-09T21:58:36.886Z,5.90
2022-12-09T22:00:38.547Z,5.82
2022-12-09T22:02:41.269Z,5.20
2022-12-09T22:04:42.964Z,5.03
2022-12-09T22:06:49.682Z,5.38
2022-12-09T22:08:51.869Z,5.30
2022-12-09T22:10:53.733Z,5.28
2022-12-09T22:12:55.434Z,5.50
2022-12-09T22:14:57.379Z,5.25
2022-12-09T22:16:59.065Z,5.07
2022-12-09T22:19:01.865Z,5.35
2022-12-09T22:21:25.519Z,5.25
2022-12-09T22:23:27.828Z,5.03
2022-12-09T22:25:29.447Z,4.82
2022-12-09T22:27:31.146Z,4.40
2022-12-09T22:29:32.739Z,4.53
2022-12-09T22:31:36.713Z,5.38
2022-12-09T22:33:38.759Z,5.20
2022-12-09T22:35:40.501Z,5.40
2022-12-09T22:37:43.858Z,5.03
2022-12-09T22:39:46.026Z,5.22
2022-12-09T22:41:47.846Z,4.20
2022-12-09T22:43:50.518Z,4.22
2022-12-09T22:45:52.195Z,4.70
2022-12-09T22:47:56.823Z,4.32
2022-12-09T22:49:58.464Z,4.30
2022-12-09T22:52:00.782Z,5.45
2022-12-09T22:54:05.540Z,4.95
2022-12-09T22:56:07.671Z,4.90
2022-12-09T22:58:09.303Z,4.70
2022-12-09T23:00:11.551Z,5.43
2022-12-09T23:02:13.681Z,5.10
2022-12-09T23:04:18.487Z,4.32
2022-12-09T23:06:20.240Z,4.88
2022-12-09T23:08:22.482Z,4.63
2022-12-09T23:10:24.317Z,4.97
2022-12-09T23:12:26.210Z,5.32
2022-12-09T23:14:27.852Z,4.50
2022-12-09T23:16:29.573Z,4.13
2022-12-09T23:18:31.997Z,6.28
2022-12-09T23:20:33.682Z,5.15
2022-12-09T23:22:35.326Z,4.45
2022-12-09T23:24:37.066Z,4.72
2022-12-09T23:26:40.282Z,4.28
2022-12-09T23:28:50.757Z,9.50
2022-12-09T23:30:52.425Z,4.80
2022-12-09T23:32:54.053Z,4.38
2022-12-09T23:34:55.686Z,4.68
2022-12-09T23:36:57.441Z,4.45
2022-12-09T23:39:00.558Z,4.82
2022-12-09T23:41:02.718Z,4.85
2022-12-09T23:43:04.356Z,4.60
2022-12-09T23:45:06.529Z,4.47
2022-12-09T23:47:08.155Z,4.50
2022-12-09T23:49:09.841Z,4.20
2022-12-09T23:51:14.984Z,4.88
2022-12-09T23:53:16.711Z,4.30
2022-12-09T23:55:18.372Z,4.47
2022-12-09T23:57:20.065Z,5.28
2022-12-09T23:59:22.868Z,4.43
